createdAt,value
2022-12-13T00:01:52.166Z,100.00
2022-12-13T00:04:23.209Z,100.00
2022-12-13T00:06:54.473Z,100.00
2022-12-13T00:09:24.277Z,100.00
2022-12-13T00:11:55.965Z,100.00
2022-12-13T00:14:26.149Z,100.00
2022-12-13T00:16:56.270Z,100.00
2022-12-13T00:19:26.020Z,100.00
2022-12-13T00:21:55.588Z,100.00
2022-12-13T00:24:25.174Z,100.00
2022-12-13T00:26:56.889Z,100.00
2022-12-13T00:29:26.825Z,100.00
2022-12-13T00:32:01.139Z,100.00
2022-12-13T00:34:31.154Z,100.00
2022-12-13T00:37:00.687Z,100.00
2022-12-13T00:39:30.285Z,100.00
2022-12-13T00:42:01.396Z,100.00
2022-12-13T00:44:31.465Z,100.00
2022-12-13T00:47:01.080Z,100.00
2022-12-13T00:49:30.670Z,100.00
2022-12-13T00:52:00.237Z,100.00
2022-12-13T00:54:29.704Z,100.00
2022-12-13T00:56:59.322Z,100.00
2022-12-13T00:59:30.494Z,100.00
2022-12-13T01:02:00.380Z,100.00
2022-12-13T01:04:29.948Z,100.00
2022-12-13T01:06:59.640Z,100.00
2022-12-13T01:09:31.157Z,100.00
2022-12-13T01:12:03.020Z,100.00
2022-12-13T01:14:35.772Z,100.00
2022-12-13T01:17:05.917Z,99.75
2022-12-13T01:19:35.620Z,100.00
2022-12-13T01:22:06.724Z,100.00
2022-12-13T01:24:36.201Z,100.00
2022-12-13T01:27:05.828Z,100.00
2022-12-13T01:29:36.839Z,100.00
2022-12-13T01:32:06.824Z,100.00
2022-12-13T01:34:36.385Z,100.00
2022-12-13T01:37:05.964Z,100.00
2022-12-13T01:39:38.120Z,100.00
2022-12-13T01:42:08.168Z,100.00
2022-12-13T01:45:07.860Z,100.00
2022-12-13T01:47:41.032Z,100.00
2022-12-13T01:50:13.655Z,100.00
2022-12-13T01:52:43.869Z,100.00
2022-12-13T01:55:13.609Z,100.00
2022-12-13T01:57:45.852Z,100.00
2022-12-13T02:00:16.366Z,100.00
2022-12-13T02:02:48.699Z,100.00
2022-12-13T02:05:22.540Z,99.97
2022-12-13T02:07:52.345Z,100.00
2022-12-13T02:10:22.215Z,100.00
2022-12-13T02:12:52.186Z,100.00
2022-12-13T02:15:22.812Z,100.00
2022-12-13T02:18:07.101Z,99.86
2022-12-13T02:20:48.653Z,99.12
2022-12-13T02:23:36.669Z,97.20
2022-12-13T02:26:25.260Z,98.25
2022-12-13T02:29:03.942Z,97.28
2022-12-13T02:31:41.300Z,96.54
2022-12-13T02:34:14.896Z,95.40
2022-12-13T02:36:50.044Z,95.75
2022-12-13T02:39:29.784Z,94.93
2022-12-13T02:42:01.909Z,97.20
2022-12-13T02:44:32.967Z,96.77
2022-12-13T02:47:06.790Z,94.99
2022-12-13T02:49:47.053Z,97.42
2022-12-13T02:52:22.541Z,95.94
2022-12-13T02:54:52.413Z,93.96
2022-12-13T02:57:32.225Z,96.75
2022-12-13T03:00:03.749Z,93.69
2022-12-13T03:02:39.620Z,91.98
2022-12-13T03:05:33.409Z,92.37
2022-12-13T03:08:10.924Z,91.16
2022-12-13T03:10:45.781Z,90.15
2022-12-13T03:13:36.577Z,91.36
2022-12-13T03:16:10.322Z,92.64
2022-12-13T03:18:41.910Z,91.21
2022-12-13T03:21:13.233Z,92.20
2022-12-13T03:23:43.066Z,90.35
2022-12-13T03:26:14.766Z,91.22
2022-12-13T03:28:44.528Z,90.98
2022-12-13T03:31:14.240Z,92.76
2022-12-13T03:33:45.569Z,90.92
2022-12-13T03:36:15.586Z,93.42
2022-12-13T03:38:45.115Z,92.57
2022-12-13T03:41:16.120Z,92.40
2022-12-13T03:43:46.258Z,92.72
2022-12-13T03:46:16.133Z,93.68
2022-12-13T03:48:47.043Z,90.39
2022-12-13T03:51:16.849Z,91.11
2022-12-13T03:53:46.341Z,92.34
2022-12-13T03:56:15.842Z,91.81
2022-12-13T03:58:45.371Z,93.90
2022-12-13T04:01:15.751Z,94.16
2022-12-13T04:03:46.147Z,91.66
2022-12-13T04:06:22.241Z,91.63
2022-12-13T04:08:53.580Z,91.67
2022-12-13T04:11:42.969Z,94.57
2022-12-13T04:14:22.771Z,91.73
2022-12-13T04:16:53.415Z,92.16
2022-12-13T04:19:24.107Z,90.50
2022-12-13T04:21:55.368Z,92.44
2022-12-13T04:24:31.678Z,92.35
2022-12-13T04:27:02.210Z,93.79
2022-12-13T04:29:33.900Z,93.86
2022-12-13T04:32:05.152Z,94.54
2022-12-13T04:35:01.013Z,93.97
2022-12-13T04:37:32.790Z,90.24
2022-12-13T04:40:02.268Z,90.36
2022-12-13T04:42:31.883Z,93.58
2022-12-13T04:45:01.516Z,92.38
2022-12-13T04:47:31.152Z,90.61
2022-12-13T04:50:00.625Z,90.44
2022-12-13T04:52:30.304Z,90.64
2022-12-13T04:55:01.323Z,91.29
2022-12-13T04:57:31.062Z,89.45
2022-12-13T05:00:00.661Z,91.85
2022-12-13T05:02:30.260Z,91.52
2022-12-13T05:05:00.423Z,89.54
2022-12-13T05:07:30.206Z,89.40
2022-12-13T05:10:01.187Z,88.79
2022-12-13T05:12:31.513Z,87.57
2022-12-13T05:15:01.510Z,88.24
2022-12-13T05:17:31.845Z,90.54
2022-12-13T05:20:01.437Z,86.99
2022-12-13T05:22:31.200Z,87.83
2022-12-13T05:25:02.205Z,89.32
2022-12-13T05:27:31.719Z,87.42
2022-12-13T05:30:01.532Z,86.84
2022-12-13T05:32:43.895Z,88.57
2022-12-13T05:35:23.113Z,85.89
2022-12-13T05:37:53.972Z,87.04
2022-12-13T05:40:25.590Z,85.59
2022-12-13T05:43:00.991Z,85.72
2022-12-13T05:45:32.274Z,85.05
2022-12-13T05:48:02.009Z,86.15
2022-12-13T05:50:31.826Z,86.37
2022-12-13T05:53:02.064Z,83.99
2022-12-13T05:55:32.993Z,84.68
2022-12-13T05:58:02.752Z,84.40
2022-12-13T06:00:32.384Z,84.66
2022-12-13T06:03:02.235Z,85.04
2022-12-13T06:05:32.397Z,84.12
2022-12-13T06:08:02.041Z,86.42
2022-12-13T06:10:34.949Z,85.13
2022-12-13T06:13:21.606Z,84.21
2022-12-13T06:16:01.669Z,83.59
2022-12-13T06:18:32.396Z,84.26
2022-12-13T06:21:02.889Z,84.15
2022-12-13T06:23:32.995Z,85.77
2022-12-13T06:26:05.305Z,85.93
2022-12-13T06:28:34.893Z,84.45
2022-12-13T06:31:05.572Z,85.70
2022-12-13T06:33:36.791Z,84.15
2022-12-13T06:36:06.868Z,83.77
2022-12-13T06:38:43.226Z,85.13
2022-12-13T06:41:15.632Z,83.66
2022-12-13T06:43:45.717Z,83.26
2022-12-13T06:46:15.914Z,84.57
2022-12-13T06:48:45.562Z,84.87
2022-12-13T06:51:22.933Z,85.54
2022-12-13T06:54:03.296Z,84.62
2022-12-13T06:56:34.429Z,82.94
2022-12-13T06:59:03.944Z,83.46
2022-12-13T07:01:36.770Z,84.14
2022-12-13T07:04:30.356Z,84.89
2022-12-13T07:07:01.984Z,82.63
2022-12-13T07:09:31.982Z,82.18
2022-12-13T07:12:05.074Z,79.79
2022-12-13T07:14:40.991Z,79.45
2022-12-13T07:17:11.873Z,81.31
2022-12-13T07:19:41.333Z,79.59
2022-12-13T07:22:11.318Z,80.34
2022-12-13T07:24:40.965Z,80.20
2022-12-13T07:27:11.974Z,80.54
2022-12-13T07:29:41.806Z,79.73
2022-12-13T07:32:12.182Z,80.49
2022-12-13T07:34:41.842Z,79.26
2022-12-13T07:37:30.002Z,79.71
2022-12-13T07:40:04.353Z,78.56
2022-12-13T07:42:35.747Z,79.04
2022-12-13T07:45:06.559Z,80.12
2022-12-13T07:47:36.268Z,79.48
2022-12-13T07:50:06.675Z,80.11
2022-12-13T07:52:54.483Z,80.16
2022-12-13T07:55:32.789Z,79.89
2022-12-13T07:58:06.064Z,78.57
2022-12-13T08:00:35.710Z,79.71
2022-12-13T08:03:05.547Z,80.23
2022-12-13T08:05:38.545Z,78.95
2022-12-13T08:08:10.262Z,76.87
2022-12-13T08:10:40.313Z,78.39
2022-12-13T08:13:21.956Z,78.97
2022-12-13T08:15:52.348Z,78.54
2022-12-13T08:18:21.909Z,78.29
2022-12-13T08:20:51.473Z,78.34
2022-12-13T08:23:21.096Z,78.35
2022-12-13T08:25:52.611Z,77.95
2022-12-13T08:28:23.939Z,76.94
2022-12-13T08:30:53.731Z,75.26
2022-12-13T08:33:23.734Z,75.89
2022-12-13T08:35:53.268Z,76.34
2022-12-13T08:38:23.807Z,75.72
2022-12-13T08:41:03.282Z,75.86
2022-12-13T08:43:34.197Z,76.79
2022-12-13T08:46:07.304Z,76.28
2022-12-13T08:48:37.016Z,75.79
2022-12-13T08:51:15.185Z,76.92
2022-12-13T08:54:10.539Z,76.19
2022-12-13T08:56:43.735Z,74.67
2022-12-13T08:59:16.136Z,75.93
2022-12-13T09:01:46.647Z,76.11
2022-12-13T09:04:16.431Z,77.06
2022-12-13T09:06:46.313Z,77.79
2022-12-13T09:09:16.360Z,74.18
2022-12-13T09:11:47.153Z,73.41
2022-12-13T09:14:18.489Z,73.37
2022-12-13T09:16:53.764Z,74.68
2022-12-13T09:19:26.718Z,73.27
2022-12-13T09:22:02.433Z,72.35
2022-12-13T09:24:36.433Z,73.93
2022-12-13T09:27:09.043Z,71.27
2022-12-13T09:29:40.621Z,73.18
2022-12-13T09:32:10.218Z,68.80
2022-12-13T09:34:39.938Z,70.61
2022-12-13T09:37:11.983Z,70.84
2022-12-13T09:39:41.533Z,69.45
2022-12-13T09:42:15.637Z,68.83
2022-12-13T09:45:03.122Z,69.86
2022-12-13T09:47:35.653Z,68.87
2022-12-13T09:50:07.449Z,65.68
2022-12-13T09:52:46.165Z,66.00
2022-12-13T09:55:19.393Z,69.33
2022-12-13T09:57:49.801Z,67.83
2022-12-13T10:00:22.460Z,65.39
2022-12-13T10:02:53.239Z,67.27
2022-12-13T10:05:35.750Z,67.46
2022-12-13T10:08:10.125Z,67.55
2022-12-13T10:10:39.825Z,68.44
2022-12-13T10:13:16.077Z,67.51
2022-12-13T10:15:49.923Z,68.27
2022-12-13T10:18:37.437Z,67.89
2022-12-13T10:21:10.995Z,68.47
2022-12-13T10:24:15.294Z,69.15
2022-12-13T10:26:36.610Z,67.12
2022-12-13T10:29:07.367Z,69.18
2022-12-13T10:31:43.522Z,68.99
2022-12-13T10:34:18.381Z,67.27
2022-12-13T10:36:48.044Z,67.32
2022-12-13T10:39:19.208Z,69.53
2022-12-13T10:41:48.811Z,67.53
2022-12-13T10:44:22.656Z,69.26
2022-12-13T10:47:01.245Z,67.73
2022-12-13T10:49:38.637Z,68.85
2022-12-13T10:52:30.943Z,71.77
2022-12-13T10:55:04.579Z,67.75
2022-12-13T10:57:53.703Z,67.78
2022-12-13T11:00:35.105Z,66.94
2022-12-13T11:03:06.576Z,67.34
2022-12-13T11:05:37.491Z,66.21
2022-12-13T11:08:14.328Z,65.64
2022-12-13T11:10:44.178Z,66.98
2022-12-13T11:13:24.105Z,66.29
2022-12-13T11:15:57.958Z,66.33
2022-12-13T11:18:34.075Z,65.77
2022-12-13T11:21:04.519Z,66.67
2022-12-13T11:23:43.634Z,67.41
2022-12-13T11:26:24.234Z,66.27
2022-12-13T11:29:02.342Z,65.77
2022-12-13T11:31:37.743Z,66.28
2022-12-13T11:34:13.493Z,65.62
2022-12-13T11:36:46.529Z,66.52
2022-12-13T11:39:20.798Z,67.48
2022-12-13T11:41:55.463Z,66.03
2022-12-13T11:44:29.597Z,66.19
2022-12-13T11:47:00.935Z,68.33
2022-12-13T11:49:37.451Z,65.90
2022-12-13T11:52:12.642Z,65.61
2022-12-13T11:54:48.993Z,66.87
2022-12-13T11:57:24.386Z,67.57
2022-12-13T12:00:02.362Z,65.64
2022-12-13T12:02:34.949Z,66.71
2022-12-13T12:05:08.154Z,66.23
2022-12-13T12:07:58.475Z,67.38
2022-12-13T12:10:32.717Z,66.90
2022-12-13T12:13:07.175Z,66.86
2022-12-13T12:15:42.497Z,66.40
2022-12-13T12:18:14.556Z,66.42
2022-12-13T12:20:58.758Z,68.39
2022-12-13T12:23:48.411Z,67.85
2022-12-13T12:26:24.971Z,66.57
2022-12-13T12:29:02.521Z,65.98
2022-12-13T12:31:34.324Z,68.68
2022-12-13T12:34:27.604Z,69.73
2022-12-13T12:37:07.707Z,67.88
2022-12-13T12:39:45.467Z,68.67
2022-12-13T12:42:25.348Z,67.70
2022-12-13T12:45:03.223Z,70.66
2022-12-13T12:48:08.625Z,70.61
2022-12-13T12:50:42.982Z,69.54
2022-12-13T12:53:24.132Z,70.42
2022-12-13T12:56:00.680Z,70.01
2022-12-13T12:58:34.908Z,69.14
2022-12-13T13:01:13.646Z,70.45
2022-12-13T13:03:44.610Z,70.16
2022-12-13T13:06:17.787Z,70.04
2022-12-13T13:08:55.308Z,70.29
2022-12-13T13:11:26.310Z,70.72
2022-12-13T13:14:06.555Z,69.66
2022-12-13T13:16:37.742Z,69.86
2022-12-13T13:19:25.736Z,68.99
2022-12-13T13:22:01.619Z,69.53
2022-12-13T13:24:34.785Z,69.83
2022-12-13T13:27:19.408Z,71.04
2022-12-13T13:29:49.041Z,70.23
2022-12-13T13:32:29.146Z,71.82
2022-12-13T13:35:17.989Z,69.77
2022-12-13T13:37:48.378Z,72.17
2022-12-13T13:40:31.443Z,72.74
2022-12-13T13:43:19.523Z,71.40
2022-12-13T13:46:00.077Z,70.87
2022-12-13T13:48:37.514Z,69.95
2022-12-13T13:51:28.271Z,71.36
2022-12-13T13:54:15.871Z,70.76
2022-12-13T13:57:10.266Z,71.07
2022-12-13T14:00:02.257Z,69.46
2022-12-13T14:02:45.963Z,70.02
2022-12-13T14:05:29.407Z,69.49
2022-12-13T14:08:20.101Z,70.11
2022-12-13T14:11:01.316Z,70.97
2022-12-13T14:13:56.603Z,71.25
2022-12-13T14:16:42.301Z,71.25
2022-12-13T14:19:26.778Z,70.54
2022-12-13T14:22:02.697Z,72.04
2022-12-13T14:24:39.727Z,72.25
2022-12-13T14:27:22.532Z,72.25
2022-12-13T14:29:58.137Z,71.83
2022-12-13T14:32:30.041Z,70.82
2022-12-13T14:35:24.982Z,71.16
2022-12-13T14:37:57.738Z,70.77
2022-12-13T14:40:29.325Z,71.85
2022-12-13T14:42:58.989Z,73.61
2022-12-13T14:45:30.515Z,72.91
2022-12-13T14:48:01.121Z,73.57
2022-12-13T14:50:34.232Z,72.66
2022-12-13T14:53:04.215Z,72.54
2022-12-13T14:55:36.269Z,74.50
2022-12-13T14:58:16.962Z,74.04
2022-12-13T15:00:46.893Z,74.73
2022-12-13T15:03:22.366Z,73.99
2022-12-13T15:05:56.029Z,74.12
2022-12-13T15:08:26.086Z,75.14
2022-12-13T15:10:56.996Z,76.43
2022-12-13T15:13:29.976Z,75.45
2022-12-13T15:16:10.263Z,75.85
2022-12-13T15:18:40.834Z,75.70
2022-12-13T15:21:22.068Z,74.70
2022-12-13T15:23:52.736Z,75.20
2022-12-13T15:26:29.002Z,74.31
2022-12-13T15:29:00.646Z,74.53
2022-12-13T15:31:32.891Z,74.92
2022-12-13T15:34:29.024Z,74.33
2022-12-13T15:37:01.956Z,74.44
2022-12-13T15:39:32.189Z,72.45
2022-12-13T15:42:01.934Z,72.83
2022-12-13T15:44:33.621Z,72.56
2022-12-13T15:47:05.166Z,73.93
2022-12-13T15:49:37.810Z,73.18
2022-12-13T15:52:24.881Z,73.88
2022-12-13T15:54:56.591Z,75.71
2022-12-13T15:57:27.383Z,76.99
2022-12-13T16:00:05.343Z,74.95
2022-12-13T16:02:35.542Z,75.06
2022-12-13T16:05:09.207Z,75.70
2022-12-13T16:07:40.776Z,75.30
2022-12-13T16:10:18.740Z,75.05
2022-12-13T16:12:50.484Z,75.19
2022-12-13T16:15:29.392Z,75.94
2022-12-13T16:18:07.724Z,76.26
2022-12-13T16:20:37.566Z,76.90
2022-12-13T16:23:08.951Z,77.00
2022-12-13T16:25:38.834Z,75.62
2022-12-13T16:28:08.460Z,74.87
2022-12-13T16:30:55.455Z,74.53
2022-12-13T16:33:29.648Z,74.55
2022-12-13T16:35:59.343Z,74.81
2022-12-13T16:38:30.308Z,74.03
2022-12-13T16:41:09.155Z,73.46
2022-12-13T16:43:41.004Z,74.59
2022-12-13T16:47:12.886Z,74.73
2022-12-13T16:49:03.123Z,74.76
2022-12-13T16:51:32.678Z,75.25
2022-12-13T16:54:03.606Z,75.11
2022-12-13T16:56:33.445Z,74.92
2022-12-13T16:59:03.097Z,74.43
2022-12-13T17:01:33.169Z,75.27
2022-12-13T17:04:09.148Z,74.85
2022-12-13T17:06:41.858Z,74.65
2022-12-13T17:09:12.847Z,74.33
2022-12-13T17:11:43.196Z,75.09
2022-12-13T17:14:13.055Z,74.66
2022-12-13T17:16:43.345Z,76.03
2022-12-13T17:19:15.532Z,76.42
2022-12-13T17:21:45.224Z,77.35
2022-12-13T17:24:16.340Z,76.61
2022-12-13T17:26:57.351Z,76.59
2022-12-13T17:29:27.463Z,77.42
2022-12-13T17:31:57.226Z,77.77
2022-12-13T17:34:27.188Z,77.86
2022-12-13T17:36:56.686Z,77.75
2022-12-13T17:39:27.831Z,79.35
2022-12-13T17:41:57.502Z,80.44
2022-12-13T17:44:27.721Z,80.85
2022-12-13T17:46:57.263Z,81.63
2022-12-13T17:49:27.159Z,81.39
2022-12-13T17:51:56.838Z,81.84
2022-12-13T17:54:29.507Z,82.46
2022-12-13T17:56:59.059Z,83.27
2022-12-13T17:59:28.980Z,82.96
2022-12-13T18:01:58.848Z,82.85
2022-12-13T18:04:28.466Z,82.62
2022-12-13T18:06:58.096Z,82.46
2022-12-13T18:09:29.133Z,82.55
2022-12-13T18:11:59.338Z,82.79
2022-12-13T18:14:29.535Z,84.17
2022-12-13T18:16:59.756Z,84.20
2022-12-13T18:19:31.971Z,83.70
2022-12-13T18:22:02.112Z,85.05
2022-12-13T18:24:33.156Z,84.63
2022-12-13T18:27:02.690Z,84.21
2022-12-13T18:29:32.361Z,84.46
2022-12-13T18:32:01.948Z,84.11
2022-12-13T18:34:31.558Z,84.45
2022-12-13T18:37:02.047Z,85.19
2022-12-13T18:39:34.728Z,85.76
2022-12-13T18:42:04.535Z,85.29
2022-12-13T18:44:34.148Z,85.46
2022-12-13T18:47:04.804Z,85.43
2022-12-13T18:49:34.362Z,86.31
2022-12-13T18:52:04.079Z,85.75
2022-12-13T18:54:35.451Z,85.47
2022-12-13T18:57:05.208Z,85.52
2022-12-13T18:59:34.755Z,85.82
2022-12-13T19:02:04.530Z,86.49
2022-12-13T19:04:35.872Z,86.05
2022-12-13T19:07:05.620Z,85.82
2022-12-13T19:09:36.555Z,86.44
2022-12-13T19:12:07.084Z,86.33
2022-12-13T19:14:38.451Z,86.10
2022-12-13T19:17:08.621Z,85.58
2022-12-13T19:19:38.398Z,86.17
2022-12-13T19:22:08.919Z,86.81
2022-12-13T19:24:39.873Z,86.90
2022-12-13T19:27:09.676Z,86.80
2022-12-13T19:29:39.279Z,87.62
2022-12-13T19:32:09.209Z,86.79
2022-12-13T19:34:39.649Z,87.09
2022-12-13T19:37:09.394Z,86.79
2022-12-13T19:39:40.291Z,85.68
2022-12-13T19:42:10.876Z,86.30
2022-12-13T19:44:40.445Z,86.77
2022-12-13T19:47:11.111Z,85.92
2022-12-13T19:49:40.750Z,86.31
2022-12-13T19:52:12.705Z,85.78
2022-12-13T19:54:43.837Z,86.22
2022-12-13T19:57:13.662Z,87.32
2022-12-13T19:59:43.352Z,87.36
2022-12-13T20:02:13.778Z,87.13
2022-12-13T20:04:44.779Z,87.18
2022-12-13T20:07:14.403Z,87.35
2022-12-13T20:09:45.398Z,87.87
2022-12-13T20:12:15.791Z,87.91
2022-12-13T20:14:45.803Z,87.24
2022-12-13T20:17:15.853Z,88.33
2022-12-13T20:19:45.376Z,87.09
2022-12-13T20:22:15.658Z,86.51
2022-12-13T20:24:46.641Z,87.15
2022-12-13T20:27:18.833Z,87.68
2022-12-13T20:29:48.701Z,87.18
2022-12-13T20:32:18.336Z,86.80
2022-12-13T20:34:54.379Z,87.39
2022-12-13T20:37:24.523Z,86.92
2022-12-13T20:39:55.629Z,86.99
2022-12-13T20:42:25.213Z,87.37
2022-12-13T20:44:54.708Z,87.81
2022-12-13T20:47:24.564Z,88.05
2022-12-13T20:49:54.308Z,87.78
2022-12-13T20:52:24.549Z,87.37
2022-12-13T20:54:55.631Z,87.70
2022-12-13T20:57:25.402Z,88.05
2022-12-13T20:59:54.948Z,87.83
2022-12-13T21:02:24.525Z,88.15
2022-12-13T21:04:54.096Z,87.55
2022-12-13T21:07:44.420Z,87.65
2022-12-13T21:10:19.368Z,87.80
2022-12-13T21:12:49.380Z,87.49
2022-12-13T21:15:19.479Z,88.11
2022-12-13T21:17:48.981Z,87.42
2022-12-13T21:20:18.607Z,88.65
2022-12-13T21:22:48.155Z,88.16
2022-12-13T21:25:19.095Z,88.71
2022-12-13T21:27:48.849Z,89.40
2022-12-13T21:30:18.473Z,89.27
2022-12-13T21:32:51.419Z,88.68
2022-12-13T21:35:22.475Z,86.68
2022-12-13T21:37:52.041Z,84.87
2022-12-13T21:40:24.227Z,82.90
2022-12-13T21:42:53.681Z,83.42
2022-12-13T21:45:23.356Z,82.35
2022-12-13T21:47:52.934Z,80.90
2022-12-13T21:50:22.502Z,80.13
2022-12-13T21:52:52.059Z,80.16
2022-12-13T21:55:38.984Z,80.10
2022-12-13T21:58:27.647Z,79.31
2022-12-13T22:00:57.652Z,79.90
2022-12-13T22:03:27.447Z,79.79
2022-12-13T22:05:57.324Z,79.51
2022-12-13T22:08:27.559Z,79.73
2022-12-13T22:11:20.864Z,80.14
2022-12-13T22:13:51.270Z,80.23
2022-12-13T22:16:21.437Z,81.02
2022-12-13T22:18:51.132Z,80.24
2022-12-13T22:21:20.859Z,80.39
2022-12-13T22:23:53.757Z,80.43
2022-12-13T22:26:25.636Z,81.16
2022-12-13T22:28:58.378Z,81.47
2022-12-13T22:31:29.963Z,81.56
2022-12-13T22:33:59.859Z,82.33
2022-12-13T22:36:29.585Z,81.87
2022-12-13T22:38:59.350Z,82.22
2022-12-13T22:41:30.451Z,82.33
2022-12-13T22:44:00.849Z,81.77
2022-12-13T22:46:30.381Z,81.44
2022-12-13T22:49:00.173Z,81.86
2022-12-13T22:51:29.828Z,82.18
2022-12-13T22:53:59.775Z,82.99
2022-12-13T22:56:30.723Z,82.13
2022-12-13T22:59:01.838Z,81.41
2022-12-13T23:01:32.627Z,82.07
2022-12-13T23:04:03.276Z,81.62
2022-12-13T23:06:33.886Z,81.90
2022-12-13T23:09:05.746Z,81.88
2022-12-13T23:11:54.432Z,81.48
2022-12-13T23:14:27.224Z,81.55
2022-12-13T23:16:57.446Z,81.53
2022-12-13T23:19:50.009Z,79.44
2022-12-13T23:22:16.902Z,80.44
2022-12-13T23:24:46.443Z,80.61
2022-12-13T23:27:17.409Z,81.71
2022-12-13T23:29:46.914Z,80.73
2022-12-13T23:32:16.581Z,80.38
2022-12-13T23:34:46.332Z,80.20
2022-12-13T23:37:15.897Z,79.97
2022-12-13T23:39:45.392Z,80.01
2022-12-13T23:42:15.013Z,79.92
2022-12-13T23:44:45.932Z,81.35
2022-12-13T23:47:15.464Z,81.38
2022-12-13T23:49:44.995Z,81.74
2022-12-13T23:52:17.929Z,81.34
2022-12-13T23:54:47.431Z,82.22
2022-12-13T23:57:17.006Z,82.50
2022-12-13T23:59:47.854Z,82.00
